Time;durP1;ratioP1;P1;durP2;ratioP2;P2;SDS_P1;SDS_P2;PMS_P1;PMS_P2;Temp;Humidity;BMP_temperature;BMP_pressure;BME280_temperature;BME280_humidity;BME280_pressure;Samples;Min_cycle;Max_cycle;Signal;HPM_P1;HPM_P2
2023/05/01 00:00:41;;;;;;;32.65;12.13;;;;;;;16.84;49.03;93446.66;4916851;29;20027;-89
2023/05/01 00:03:06;;;;;;;38.67;12.27;;;;;;;16.86;48.77;93450.38;4915911;29;20070;-87
2023/05/01 00:05:32;;;;;;;36.67;12.00;;;;;;;16.82;48.80;93447.16;4932437;29;20043;-90
2023/05/01 00:07:57;;;;;;;59.50;29.80;;;;;;;16.88;49.24;93438.97;4929402;29;20035;-90
2023/05/01 00:10:23;;;;;;;49.03;27.05;;;;;;;16.95;48.29;93432.97;4904567;29;20091;-87
2023/05/01 00:12:48;;;;;;;30.55;11.18;;;;;;;16.94;48.26;93432.22;4925111;29;20043;-88
2023/05/01 00:15:14;;;;;;;30.60;11.48;;;;;;;17.00;47.92;93432.97;4931461;29;20537;-88
2023/05/01 00:17:39;;;;;;;28.02;10.63;;;;;;;16.93;48.03;93427.25;4932131;29;20046;-87
2023/05/01 00:20:05;;;;;;;27.40;11.65;;;;;;;16.97;48.75;93431.22;4931429;29;20559;-87
2023/05/01 00:22:31;;;;;;;28.17;8.88;;;;;;;17.03;47.83;93426.50;4904737;29;20039;-87
2023/05/01 00:24:56;;;;;;;27.75;10.75;;;;;;;16.98;48.03;93424.53;4906357;29;20039;-86
2023/05/01 00:27:22;;;;;;;28.67;10.57;;;;;;;16.98;48.00;93419.06;4915461;29;20047;-87
2023/05/01 00:29:49;;;;;;;23.33;10.15;;;;;;;16.99;48.36;93419.81;4931322;29;20498;-89
2023/05/01 00:32:15;;;;;;;30.10;11.45;;;;;;;17.00;47.88;93419.31;4914616;29;20472;-90
2023/05/01 00:34:40;;;;;;;26.80;10.68;;;;;;;17.02;48.29;93405.16;4911161;29;20051;-89
2023/05/01 00:37:06;;;;;;;26.25;12.40;;;;;;;16.98;48.37;93412.84;4915078;29;20047;-86
2023/05/01 00:39:31;;;;;;;26.17;11.30;;;;;;;17.04;47.83;93406.13;4931359;29;20125;-88
2023/05/01 00:41:57;;;;;;;28.30;11.82;;;;;;;17.02;48.02;93399.69;4928035;29;20050;-87
2023/05/01 00:44:22;;;;;;;26.92;11.13;;;;;;;17.07;48.04;93398.94;4884321;28;20062;-87
2023/05/01 00:46:48;;;;;;;32.22;11.98;;;;;;;17.01;48.14;93398.94;4888361;29;20051;-88
2023/05/01 00:49:14;;;;;;;34.25;12.90;;;;;;;17.00;48.34;93402.16;4929384;29;20047;-87
2023/05/01 00:51:40;;;;;;;33.58;12.00;;;;;;;16.96;48.37;93391.50;4912639;29;20059;-88
2023/05/01 00:54:05;;;;;;;26.73;12.15;;;;;;;16.93;48.73;93389.03;4916478;29;20043;-88
2023/05/01 00:56:30;;;;;;;29.33;11.95;;;;;;;16.97;48.15;93378.59;4932548;29;20078;-87
2023/05/01 00:58:56;;;;;;;29.50;13.77;;;;;;;16.93;48.51;93380.84;4897888;29;20039;-88
2023/05/01 01:01:22;;;;;;;27.73;13.48;;;;;;;16.92;48.70;93380.09;4912726;29;20071;-87
2023/05/01 01:03:47;;;;;;;27.17;14.48;;;;;;;16.94;48.49;93374.13;4914981;29;20486;-87
2023/05/01 01:06:50;;;;;;;25.33;13.95;;;;;;;16.95;48.30;93375.63;4915942;29;20332;-90
2023/05/01 01:09:35;;;;;;;26.63;13.70;;;;;;;16.90;48.39;93376.38;4948348;29;20047;-90
2023/05/01 01:12:28;;;;;;;25.23;11.90;;;;;;;16.93;48.13;93378.09;4912922;29;20058;-87
2023/05/01 01:14:57;;;;;;;25.38;12.00;;;;;;;16.89;48.60;93380.38;4948666;29;20032;-88
2023/05/01 01:17:32;;;;;;;23.98;12.35;;;;;;;16.88;48.71;93376.16;4925733;29;20191;-90
2023/05/01 01:20:18;;;;;;;28.30;13.45;;;;;;;16.87;48.49;93359.03;4912225;29;20047;-87
2023/05/01 01:22:46;;;;;;;27.20;11.93;;;;;;;16.94;48.20;93365.94;4929494;29;20039;-89
2023/05/01 01:25:28;;;;;;;30.27;12.75;;;;;;;16.93;48.46;93356.25;4914067;29;20036;-89
2023/05/01 01:28:21;;;;;;;22.58;11.82;;;;;;;16.93;48.43;93367.94;4931612;28;20308;-89
2023/05/01 01:31:13;;;;;;;30.85;11.60;;;;;;;16.93;48.17;93357.00;4932240;29;20043;-89
2023/05/01 01:33:58;;;;;;;24.70;12.25;;;;;;;16.86;48.28;93354.81;4931751;29;20054;-88
2023/05/01 01:36:42;;;;;;;25.95;10.73;;;;;;;16.92;48.54;93362.97;4928721;29;20047;-88
2023/05/01 01:39:15;;;;;;;25.85;10.95;;;;;;;16.93;48.26;93357.00;4908740;29;20119;-87
2023/05/01 01:41:40;;;;;;;21.17;11.65;;;;;;;16.93;48.37;93354.28;4910086;29;20077;-89
2023/05/01 01:44:19;;;;;;;24.00;11.65;;;;;;;16.96;47.80;93361.47;4916947;29;20038;-87
2023/05/01 01:46:44;;;;;;;20.38;11.20;;;;;;;16.91;48.59;93353.28;4907748;29;20044;-89
2023/05/01 01:49:14;;;;;;;21.48;11.63;;;;;;;16.87;48.56;93344.63;4901001;29;20051;-86
2023/05/01 01:51:40;;;;;;;29.20;11.30;;;;;;;16.95;48.24;93356.50;4911672;29;20055;-89
2023/05/01 01:54:05;;;;;;;21.15;11.05;;;;;;;16.87;48.40;93345.38;4899002;29;20043;-89
2023/05/01 01:56:31;;;;;;;20.92;10.20;;;;;;;16.91;48.12;93342.38;4917516;29;20035;-87
2023/05/01 01:58:57;;;;;;;25.98;12.05;;;;;;;16.88;48.33;93333.22;4930138;29;20043;-88
2023/05/01 02:01:22;;;;;;;20.13;11.15;;;;;;;16.93;48.17;93324.25;4934644;29;20098;-88
2023/05/01 02:03:48;;;;;;;27.23;10.68;;;;;;;16.91;48.38;93325.97;4953099;29;20039;-90
2023/05/01 02:06:13;;;;;;;23.13;10.88;;;;;;;16.92;48.14;93324.75;4934966;29;20051;-87
2023/05/01 02:08:38;;;;;;;28.88;11.13;;;;;;;16.92;48.14;93332.94;4919632;29;20085;-88
2023/05/01 02:11:04;;;;;;;22.88;10.35;;;;;;;16.94;47.18;93323.00;4907833;29;20028;-89
2023/05/01 02:13:30;;;;;;;18.63;10.40;;;;;;;16.91;47.99;93337.66;4897477;29;20040;-87
2023/05/01 02:15:57;;;;;;;19.77;9.15;;;;;;;16.90;48.25;93319.03;4909380;29;20415;-87
2023/05/01 02:18:23;;;;;;;21.35;10.80;;;;;;;16.84;47.84;93312.88;4918085;29;20051;-89
2023/05/01 02:20:48;;;;;;;21.05;10.45;;;;;;;16.97;47.71;93313.06;4935103;29;20073;-89
2023/05/01 02:23:14;;;;;;;19.75;10.05;;;;;;;16.98;47.69;93311.81;4915717;29;20043;-89
2023/05/01 02:25:39;;;;;;;25.65;10.52;;;;;;;16.94;48.03;93314.06;4935502;29;20041;-88
2023/05/01 02:28:09;;;;;;;22.58;10.10;;;;;;;16.90;47.88;93310.84;4918307;29;20398;-87
2023/05/01 02:30:35;;;;;;;27.83;11.27;;;;;;;16.92;47.99;93302.91;4935062;29;20043;-88
2023/05/01 02:33:00;;;;;;;22.67;10.15;;;;;;;16.89;47.94;93304.66;4934963;29;20035;-87
2023/05/01 02:35:25;;;;;;;19.08;10.40;;;;;;;16.87;48.17;93306.41;4922176;29;20250;-89
2023/05/01 02:37:52;;;;;;;17.83;10.85;;;;;;;16.83;48.64;93309.41;4904103;29;20146;-87
2023/05/01 02:40:17;;;;;;;19.77;10.00;;;;;;;16.85;48.11;93300.72;4913261;28;20047;-87
2023/05/01 02:42:43;;;;;;;21.10;9.73;;;;;;;16.86;48.10;93297.47;4896923;29;20410;-89
2023/05/01 02:45:10;;;;;;;19.77;9.60;;;;;;;16.83;48.19;93298.47;4913124;29;20055;-87
2023/05/01 02:47:38;;;;;;;19.75;9.88;;;;;;;16.83;48.36;93289.56;4903820;29;20051;-88
2023/05/01 02:50:05;;;;;;;21.23;9.80;;;;;;;16.82;48.20;93291.53;4914260;29;20043;-89
2023/05/01 02:52:30;;;;;;;19.50;10.15;;;;;;;16.87;48.17;93290.03;4915320;29;20517;-89
2023/05/01 02:54:56;;;;;;;22.63;9.23;;;;;;;16.83;48.05;93281.38;4915273;29;20046;-87
2023/05/01 02:57:21;;;;;;;17.30;10.07;;;;;;;16.92;47.71;93286.50;4914873;29;20070;-90
2023/05/01 02:59:47;;;;;;;18.65;9.40;;;;;;;16.88;47.88;93281.34;4923761;29;20398;-88
2023/05/01 03:02:12;;;;;;;16.05;9.65;;;;;;;16.90;47.98;93284.28;4914470;29;20054;-88
2023/05/01 03:04:37;;;;;;;17.65;8.82;;;;;;;16.90;47.95;93289.75;4901378;29;20050;-88
2023/05/01 03:07:03;;;;;;;17.48;9.48;;;;;;;16.90;48.02;93289.00;4914709;29;20048;-88
2023/05/01 03:09:30;;;;;;;17.95;9.32;;;;;;;16.91;47.93;93282.28;4916743;29;20052;-89
2023/05/01 03:11:55;;;;;;;20.00;8.90;;;;;;;16.90;47.61;93278.81;4917023;29;20040;-89
2023/05/01 03:14:21;;;;;;;20.35;9.05;;;;;;;16.95;47.69;93280.78;4925558;29;20099;-89
2023/05/01 03:16:46;;;;;;;17.05;9.35;;;;;;;16.87;48.34;93271.66;4915110;29;20043;-89
2023/05/01 03:19:12;;;;;;;21.83;11.93;;;;;;;16.92;47.97;93276.34;4930076;29;20103;-90
2023/05/01 03:21:37;;;;;;;27.30;16.27;;;;;;;16.94;47.95;93281.28;4893648;29;20093;-89
2023/05/01 03:24:02;;;;;;;23.48;16.55;;;;;;;16.96;47.67;93285.00;4913951;29;20032;-88
2023/05/01 03:26:28;;;;;;;28.88;14.70;;;;;;;16.88;47.76;93286.06;4915249;29;20502;-90
2023/05/01 03:28:55;;;;;;;23.15;14.18;;;;;;;16.93;47.92;93279.81;4930901;29;20036;-88
2023/05/01 03:31:20;;;;;;;21.75;13.57;;;;;;;16.92;47.60;93276.34;4930167;29;20502;-87
2023/05/01 03:33:46;;;;;;;15.30;11.50;;;;;;;16.85;47.77;93281.59;4930783;29;20095;-90
2023/05/01 03:36:12;;;;;;;21.30;10.98;;;;;;;16.76;48.51;93277.16;4902461;29;20079;-90
2023/05/01 03:38:37;;;;;;;25.75;11.98;;;;;;;16.81;47.16;93281.88;4903651;29;20487;-87
2023/05/01 03:41:04;;;;;;;19.10;10.15;;;;;;;16.87;46.24;93287.31;4891869;29;20411;-87
2023/05/01 03:43:30;;;;;;;15.63;8.82;;;;;;;16.82;46.88;93282.59;4902536;29;20051;-89
2023/05/01 03:45:56;;;;;;;19.58;9.40;;;;;;;16.78;46.85;93280.13;4914552;29;20043;-87
2023/05/01 03:48:22;;;;;;;17.00;9.43;;;;;;;16.70;46.79;93269.00;4897354;29;20048;-90
2023/05/01 03:50:47;;;;;;;23.88;10.27;;;;;;;16.75;47.01;93279.16;4904785;29;20051;-88
2023/05/01 03:53:13;;;;;;;18.48;10.30;;;;;;;16.73;47.40;93268.00;4914453;29;20040;-87
2023/05/01 03:55:39;;;;;;;15.55;9.63;;;;;;;16.79;47.01;93265.25;4914462;29;20046;-87
2023/05/01 03:58:04;;;;;;;18.55;9.95;;;;;;;16.87;47.28;93276.38;4928563;29;20051;-86
2023/05/01 04:00:30;;;;;;;20.40;9.38;;;;;;;16.79;47.75;93274.19;4902109;29;20040;-88
2023/05/01 04:02:56;;;;;;;19.27;10.25;;;;;;;16.77;47.96;93270.47;4912306;29;20044;-87
2023/05/01 04:05:21;;;;;;;15.95;9.15;;;;;;;16.76;47.59;93264.25;4911661;29;20529;-89
2023/05/01 04:07:47;;;;;;;21.17;9.80;;;;;;;16.74;47.60;93269.47;4913062;29;20050;-89
2023/05/01 04:10:12;;;;;;;19.33;10.18;;;;;;;16.72;47.59;93271.22;4912391;29;20044;-89
2023/05/01 04:12:37;;;;;;;20.45;9.50;;;;;;;16.80;47.74;93277.66;4897378;29;20072;-87
2023/05/01 04:15:03;;;;;;;16.42;9.40;;;;;;;16.98;47.83;93268.88;4925162;29;20040;-87
2023/05/01 04:17:29;;;;;;;22.30;9.88;;;;;;;16.88;47.56;93270.44;4928777;29;20685;-88
2023/05/01 04:19:54;;;;;;;19.73;9.20;;;;;;;16.84;47.91;93269.19;4929017;29;20051;-89
2023/05/01 04:22:22;;;;;;;15.07;9.38;;;;;;;16.78;48.32;93266.50;4912623;29;20040;-89
2023/05/01 04:24:48;;;;;;;12.82;8.52;;;;;;;16.81;48.18;93265.47;4904200;29;20487;-89
2023/05/01 04:27:13;;;;;;;21.63;9.13;;;;;;;16.79;48.11;93260.53;4906611;29;20100;-89
2023/05/01 04:29:40;;;;;;;16.95;8.75;;;;;;;16.75;48.38;93251.84;4922468;29;20051;-89
2023/05/01 04:32:06;;;;;;;13.07;8.45;;;;;;;16.75;47.93;93256.56;4912204;29;20039;-88
2023/05/01 04:34:31;;;;;;;15.43;9.15;;;;;;;16.78;48.20;93256.31;4928408;29;20042;-89
2023/05/01 04:36:57;;;;;;;13.60;8.70;;;;;;;16.76;48.14;93253.34;4907467;29;20043;-87
2023/05/01 04:39:22;;;;;;;17.30;8.23;;;;;;;16.77;48.45;93263.00;4912330;29;20044;-90
2023/05/01 04:41:48;;;;;;;15.25;7.60;;;;;;;16.79;47.80;93260.53;4914802;29;20048;-87
2023/05/01 04:44:14;;;;;;;14.43;8.23;;;;;;;16.79;47.67;93262.50;4900890;29;20055;-89
2023/05/01 04:46:39;;;;;;;15.35;8.50;;;;;;;16.78;48.09;93269.22;4912872;29;20043;-86
2023/05/01 04:49:04;;;;;;;12.80;7.95;;;;;;;16.86;47.94;93261.25;4895499;29;20460;-87
2023/05/01 04:51:30;;;;;;;12.70;7.68;;;;;;;16.82;47.67;93255.31;4911493;29;20041;-88
2023/05/01 04:53:55;;;;;;;12.38;6.85;;;;;;;16.84;48.04;93261.75;4880953;29;20044;-87
2023/05/01 04:56:20;;;;;;;13.02;7.15;;;;;;;16.83;47.75;93259.53;4905304;29;20052;-88
2023/05/01 04:58:46;;;;;;;14.95;7.47;;;;;;;16.85;47.94;93257.03;4905949;29;20041;-89
2023/05/01 05:01:11;;;;;;;12.45;6.78;;;;;;;16.84;47.96;93244.63;4896714;29;20494;-89
2023/05/01 05:03:37;;;;;;;13.68;7.18;;;;;;;16.80;47.93;93244.88;4927755;29;20099;-89
2023/05/01 05:06:03;;;;;;;6.57;5.88;;;;;;;16.82;47.56;93236.94;4912670;29;20043;-87
2023/05/01 05:08:29;;;;;;;9.73;6.30;;;;;;;16.90;47.71;93240.59;4912609;29;20056;-89
2023/05/01 05:10:56;;;;;;;11.13;5.97;;;;;;;16.86;47.95;93233.94;4912033;29;20035;-90
2023/05/01 05:13:22;;;;;;;11.27;6.05;;;;;;;16.87;47.75;93233.44;4890910;29;20048;-86
2023/05/01 05:15:47;;;;;;;11.88;6.30;;;;;;;16.86;47.94;93239.41;4907657;29;20040;-87
2023/05/01 05:18:13;;;;;;;10.55;6.15;;;;;;;16.85;47.94;93233.22;4914259;29;20043;-89
2023/05/01 05:20:38;;;;;;;9.43;5.85;;;;;;;16.92;47.47;93231.91;4915132;29;20046;-88
2023/05/01 05:23:04;;;;;;;10.98;5.88;;;;;;;16.84;47.63;93226.25;4915164;29;20491;-87
2023/05/01 05:25:29;;;;;;;10.43;5.38;;;;;;;16.92;47.36;93227.19;4929039;29;20099;-90
2023/05/01 05:27:55;;;;;;;11.63;6.00;;;;;;;16.91;48.27;93227.69;4916516;29;20039;-89
2023/05/01 05:30:20;;;;;;;8.48;5.38;;;;;;;16.91;47.47;93227.69;4931371;29;20052;-89
2023/05/01 05:32:46;;;;;;;9.07;4.90;;;;;;;16.96;47.57;93219.47;4916296;29;20525;-87
2023/05/01 05:35:11;;;;;;;8.95;4.50;;;;;;;16.91;47.67;93217.50;4914113;29;20048;-90
2023/05/01 05:37:37;;;;;;;7.00;5.18;;;;;;;16.91;47.54;93212.06;4928606;29;20397;-88
2023/05/01 05:40:02;;;;;;;7.88;4.75;;;;;;;16.91;47.78;93209.31;4915207;29;20047;-87
2023/05/01 05:42:28;;;;;;;7.28;4.53;;;;;;;16.89;47.81;93211.81;4915667;29;20486;-87
2023/05/01 05:44:53;;;;;;;10.70;4.63;;;;;;;16.92;47.89;93210.81;4918565;29;20055;-87
2023/05/01 05:47:19;;;;;;;11.85;4.57;;;;;;;16.92;47.31;93212.78;4916540;29;20580;-87
2023/05/01 05:49:44;;;;;;;6.72;4.25;;;;;;;16.94;47.79;93213.78;4909419;29;20043;-87
2023/05/01 05:52:09;;;;;;;5.95;3.97;;;;;;;16.98;47.40;93218.97;4917935;29;20043;-87
2023/05/01 05:54:35;;;;;;;9.45;4.50;;;;;;;17.04;47.35;93216.94;4918078;29;20094;-87
2023/05/01 05:57:02;;;;;;;8.27;4.22;;;;;;;16.97;47.50;93209.28;4916574;29;20102;-87
2023/05/01 05:59:27;;;;;;;6.75;4.20;;;;;;;16.98;47.07;93211.53;4916826;29;20082;-88
2023/05/01 06:01:53;;;;;;;7.00;4.05;;;;;;;17.00;47.26;93205.56;4921415;29;20043;-86
2023/05/01 06:04:18;;;;;;;5.63;3.88;;;;;;;17.04;47.31;93211.50;4949928;28;20102;-87
2023/05/01 06:06:44;;;;;;;5.75;3.53;;;;;;;17.03;46.40;93213.47;4934193;29;20136;-87
2023/05/01 06:09:11;;;;;;;5.82;3.67;;;;;;;16.98;47.26;93211.53;4917689;29;20058;-87
2023/05/01 06:11:37;;;;;;;4.70;3.00;;;;;;;16.98;47.29;93208.78;4931765;29;20035;-87
2023/05/01 06:14:03;;;;;;;7.07;3.22;;;;;;;17.07;47.08;93215.94;4883437;29;20036;-87
2023/05/01 06:16:28;;;;;;;5.15;2.85;;;;;;;17.11;46.59;93213.66;4933366;29;20240;-89
2023/05/01 06:18:54;;;;;;;5.47;2.67;;;;;;;17.11;46.92;93208.19;4934476;29;20039;-87
2023/05/01 06:21:19;;;;;;;4.57;2.65;;;;;;;17.07;47.28;93211.22;4917151;29;20047;-89
2023/05/01 06:23:45;;;;;;;7.97;3.10;;;;;;;17.11;47.18;93205.47;4930892;29;20032;-86
2023/05/01 06:26:10;;;;;;;4.38;2.42;;;;;;;17.12;46.77;93196.78;4933571;29;20039;-88
2023/05/01 06:28:36;;;;;;;5.38;2.65;;;;;;;17.17;46.70;93202.72;4933809;29;20461;-87
2023/05/01 06:31:01;;;;;;;4.50;2.25;;;;;;;17.19;46.75;93202.94;4917345;29;20047;-88
2023/05/01 06:33:26;;;;;;;3.72;2.38;;;;;;;17.18;46.56;93196.75;4933337;29;20046;-88
2023/05/01 06:35:53;;;;;;;3.67;2.55;;;;;;;17.21;46.41;93189.53;4898875;29;20052;-89
2023/05/01 06:38:19;;;;;;;2.97;2.30;;;;;;;17.18;46.61;93196.75;4896663;29;20040;-89
2023/05/01 06:40:46;;;;;;;2.78;1.77;;;;;;;17.21;46.54;93195.72;4910345;29;20092;-87
2023/05/01 06:43:11;;;;;;;3.90;2.42;;;;;;;17.24;46.24;93194.72;4914252;29;20063;-87
2023/05/01 06:45:39;;;;;;;3.58;2.33;;;;;;;17.27;46.10;93193.69;4914209;29;20050;-89
2023/05/01 06:48:05;;;;;;;3.67;1.90;;;;;;;17.23;47.00;93198.69;4908041;29;20040;-86
2023/05/01 06:50:30;;;;;;;3.15;1.95;;;;;;;17.25;46.49;93185.28;4911077;29;20212;-88
2023/05/01 06:52:57;;;;;;;2.17;1.83;;;;;;;17.24;46.47;93197.44;4917825;29;20090;-87
2023/05/01 06:55:23;;;;;;;3.70;1.98;;;;;;;17.24;46.44;93186.53;4932860;29;20048;-88
2023/05/01 06:57:48;;;;;;;2.25;2.00;;;;;;;17.31;46.10;93187.97;4920540;29;20036;-88
2023/05/01 07:00:14;;;;;;;3.45;1.92;;;;;;;17.28;46.64;93184.25;4903085;29;20369;-89
2023/05/01 07:02:40;;;;;;;2.70;1.70;;;;;;;17.29;45.96;93180.28;4910925;29;20047;-89
2023/05/01 07:05:06;;;;;;;3.60;1.77;;;;;;;17.26;46.54;93186.00;4932894;29;20413;-88
2023/05/01 07:07:31;;;;;;;2.50;1.75;;;;;;;17.31;46.00;93185.22;4949016;28;20043;-89
2023/05/01 07:09:57;;;;;;;2.17;1.50;;;;;;;17.29;46.29;93180.28;4933835;29;20046;-88
2023/05/01 07:12:22;;;;;;;2.67;1.80;;;;;;;17.32;45.99;93173.06;4930376;29;20152;-89
2023/05/01 07:14:48;;;;;;;2.20;1.52;;;;;;;17.36;45.94;93176.22;4933081;29;20110;-88
2023/05/01 07:17:14;;;;;;;2.20;1.85;;;;;;;17.33;46.21;93178.00;4932698;29;20058;-87
2023/05/01 07:19:39;;;;;;;2.17;1.40;;;;;;;17.33;46.34;93171.78;4917264;29;20059;-90
2023/05/01 07:22:05;;;;;;;3.20;1.60;;;;;;;17.34;46.00;93165.06;4949790;29;20047;-86
2023/05/01 07:24:30;;;;;;;4.88;1.70;;;;;;;17.32;46.19;93168.31;4911193;29;20047;-88
2023/05/01 07:26:56;;;;;;;2.58;1.60;;;;;;;17.33;46.00;93164.31;4912990;29;20038;-88
2023/05/01 07:29:22;;;;;;;1.83;1.40;;;;;;;17.33;46.29;93169.06;4916319;29;20409;-87
2023/05/01 07:31:47;;;;;;;2.40;1.70;;;;;;;17.36;45.78;93151.63;4917592;29;20035;-88
2023/05/01 07:34:13;;;;;;;2.05;1.60;;;;;;;17.32;46.10;93149.19;4931808;29;20086;-88
2023/05/01 07:36:38;;;;;;;2.50;1.70;;;;;;;17.37;45.93;93161.31;4944662;28;20054;-89
2023/05/01 07:39:03;;;;;;;2.13;1.05;;;;;;;17.37;45.61;93158.59;4932673;29;20409;-87
2023/05/01 07:41:30;;;;;;;2.17;1.60;;;;;;;17.36;46.06;93155.13;4948169;28;20051;-89
2023/05/01 07:43:57;;;;;;;2.28;1.65;;;;;;;17.41;45.91;93153.59;4932706;29;20075;-90
2023/05/01 07:46:23;;;;;;;2.55;1.40;;;;;;;17.36;46.08;93146.91;4915477;29;20505;-86
2023/05/01 07:48:48;;;;;;;3.72;1.42;;;;;;;17.40;45.92;93157.56;4941510;29;20051;-89
2023/05/01 07:51:13;;;;;;;11.43;7.32;;;;;;;17.36;46.21;93148.91;4897059;29;20047;-89
2023/05/01 07:53:41;;;;;;;15.70;8.38;;;;;;;17.38;46.23;93149.13;4897570;29;20449;-88
2023/05/01 07:56:08;;;;;;;14.05;9.05;;;;;;;17.39;45.76;93159.56;4923242;29;20735;-86
2023/05/01 07:58:35;;;;;;;5.50;3.83;;;;;;;17.34;46.72;93143.94;4932096;29;20413;-87
2023/05/01 08:01:01;;;;;;;5.32;3.28;;;;;;;17.37;46.27;93139.47;4908120;29;20051;-88
2023/05/01 08:03:28;;;;;;;3.65;2.13;;;;;;;17.37;45.47;93142.94;4905511;29;20458;-87
2023/05/01 08:05:53;;;;;;;2.30;1.50;;;;;;;17.36;45.79;93140.72;4924179;29;20043;-88
2023/05/01 08:08:20;;;;;;;1.75;1.52;;;;;;;17.39;45.45;93137.69;4930004;29;20048;-88
2023/05/01 08:10:46;;;;;;;10.50;6.75;;;;;;;17.43;45.49;93149.09;4932514;29;20094;-87
2023/05/01 08:13:11;;;;;;;12.27;7.68;;;;;;;17.40;45.56;93146.63;4913436;29;20051;-88
2023/05/01 08:15:38;;;;;;;6.70;4.38;;;;;;;17.35;45.88;93153.63;4932113;29;20046;-88
2023/05/01 08:18:03;;;;;;;5.55;4.10;;;;;;;17.42;45.50;93152.34;4915707;29;20050;-88
2023/05/01 08:20:29;;;;;;;4.18;3.08;;;;;;;17.38;45.75;93155.34;4931796;29;20043;-88
2023/05/01 08:22:54;;;;;;;4.65;2.80;;;;;;;17.36;45.78;93143.44;4932002;29;20035;-88
2023/05/01 08:25:20;;;;;;;4.25;2.47;;;;;;;17.39;45.41;93148.63;4928181;29;20047;-88
2023/05/01 08:27:45;;;;;;;3.63;2.25;;;;;;;17.39;45.68;93148.63;4915920;29;20665;-88
2023/05/01 08:30:11;;;;;;;3.60;2.40;;;;;;;17.40;46.01;93152.84;4931293;29;20047;-88
2023/05/01 08:32:36;;;;;;;3.05;2.50;;;;;;;17.39;45.29;93147.88;4931410;29;20051;-88
2023/05/01 08:35:01;;;;;;;3.05;2.50;;;;;;;17.41;46.03;93154.34;4947815;29;20040;-88
2023/05/01 08:37:27;;;;;;;4.40;2.90;;;;;;;17.38;45.72;93143.69;4905639;29;20047;-88
2023/05/01 08:39:52;;;;;;;3.00;2.40;;;;;;;17.39;45.78;93136.97;4916783;29;20564;-88
2023/05/01 08:42:18;;;;;;;3.28;2.20;;;;;;;17.40;45.79;93139.19;4878033;29;20033;-88
2023/05/01 08:44:43;;;;;;;3.08;2.17;;;;;;;17.39;45.52;93137.69;4929232;29;20038;-88
2023/05/01 08:47:15;;;;;;;3.28;2.40;;;;;;;17.36;46.25;93130.53;4931362;29;20047;-89
2023/05/01 08:49:42;;;;;;;3.45;1.98;;;;;;;17.38;46.11;93130.75;4901878;29;20091;-88
2023/05/01 08:52:09;;;;;;;3.25;2.13;;;;;;;17.39;46.11;93139.69;4924593;29;20047;-88
2023/05/01 08:54:35;;;;;;;2.30;1.90;;;;;;;17.38;45.90;93141.69;4917614;29;20051;-88
2023/05/01 08:57:04;;;;;;;2.80;2.00;;;;;;;17.41;45.60;93129.75;4937735;29;20058;-88
2023/05/01 08:59:31;;;;;;;2.50;1.92;;;;;;;17.40;46.04;93141.91;4922220;29;20082;-88
2023/05/01 09:02:01;;;;;;;2.08;1.83;;;;;;;17.44;45.85;93134.19;4925248;29;20032;-88
2023/05/01 09:04:39;;;;;;;2.28;2.05;;;;;;;17.40;46.09;93131.00;4937515;29;20130;-88
2023/05/01 09:07:04;;;;;;;2.33;2.13;;;;;;;17.42;46.10;93125.00;4921043;29;20045;-88
2023/05/01 09:09:30;;;;;;;2.67;1.92;;;;;;;17.42;46.08;93122.28;4938105;29;20035;-88
2023/05/01 09:12:00;;;;;;;2.38;1.90;;;;;;;17.40;45.76;93136.44;4937913;29;20132;-88
2023/05/01 09:14:25;;;;;;;2.45;1.98;;;;;;;17.43;45.59;93126.50;4913915;29;20071;-88
2023/05/01 09:16:51;;;;;;;2.45;1.90;;;;;;;17.41;46.20;93129.75;4922333;29;20046;-88
2023/05/01 09:19:17;;;;;;;2.15;1.65;;;;;;;17.48;45.56;93134.66;4936727;28;20047;-88
2023/05/01 09:21:42;;;;;;;4.80;2.60;;;;;;;17.49;45.45;93127.19;4921861;29;20044;-88
2023/05/01 09:24:08;;;;;;;2.42;1.90;;;;;;;17.49;45.85;93119.00;4927631;29;20433;-88
2023/05/01 09:26:35;;;;;;;3.33;2.10;;;;;;;17.42;45.60;93128.50;4912467;29;20511;-88
2023/05/01 09:29:01;;;;;;;2.65;1.80;;;;;;;17.46;45.59;93122.75;4953004;29;20501;-88
2023/05/01 09:31:27;;;;;;;2.13;1.90;;;;;;;17.45;45.91;93118.53;4921420;29;20071;-88
2023/05/01 09:33:56;;;;;;;2.47;2.03;;;;;;;17.44;45.81;93122.50;4921828;29;20118;-88
2023/05/01 09:36:22;;;;;;;2.42;1.88;;;;;;;17.44;45.62;93120.53;4920969;29;20035;-88
2023/05/01 09:38:47;;;;;;;1.65;1.55;;;;;;;17.46;45.97;93128.94;4904735;29;20055;-89
2023/05/01 09:41:13;;;;;;;2.65;1.90;;;;;;;17.45;45.81;93121.25;4904877;29;20048;-88
2023/05/01 09:43:38;;;;;;;2.20;1.67;;;;;;;17.44;45.74;93126.00;4931221;29;20044;-88
2023/05/01 09:46:05;;;;;;;1.73;1.63;;;;;;;17.46;45.54;93128.22;4954162;28;20397;-87
2023/05/01 09:48:31;;;;;;;2.30;1.90;;;;;;;17.42;45.99;93117.56;4905861;29;20212;-89
2023/05/01 09:51:00;;;;;;;2.03;1.60;;;;;;;17.46;45.74;93131.69;4904443;29;20493;-88
2023/05/01 09:53:38;;;;;;;1.88;1.63;;;;;;;17.46;45.99;93134.41;4905237;29;20386;-88
2023/05/01 09:56:04;;;;;;;1.88;1.40;;;;;;;17.43;45.77;93124.50;4902769;29;20027;-89
2023/05/01 09:58:29;;;;;;;2.05;1.35;;;;;;;17.44;45.88;93119.78;4921377;29;20046;-88
2023/05/01 10:00:55;;;;;;;1.55;1.30;;;;;;;17.49;45.67;93113.53;4920536;29;20098;-88
2023/05/01 10:03:20;;;;;;;2.58;1.52;;;;;;;17.46;46.13;93122.75;4934695;29;20051;-88
2023/05/01 10:05:46;;;;;;;1.30;1.13;;;;;;;17.45;45.78;93119.28;4915250;29;20044;-89
2023/05/01 10:08:13;;;;;;;1.50;1.15;;;;;;;17.45;46.06;93121.25;4932075;29;20043;-88
2023/05/01 10:10:39;;;;;;;3.45;1.70;;;;;;;17.47;45.75;93124.97;4934654;29;20050;-88
2023/05/01 10:13:16;;;;;;;1.55;1.40;;;;;;;17.44;46.15;93122.50;4931763;29;20039;-88
2023/05/01 10:15:43;;;;;;;2.80;1.42;;;;;;;17.48;46.25;93120.25;4916657;29;20094;-88
2023/05/01 10:18:09;;;;;;;1.52;1.15;;;;;;;17.52;45.76;93109.03;4934444;29;20130;-88
2023/05/01 10:20:34;;;;;;;1.83;1.30;;;;;;;17.51;45.78;93115.75;4933991;29;20405;-88
2023/05/01 10:23:02;;;;;;;2.65;1.20;;;;;;;17.50;45.96;93119.75;4934494;29;20391;-89
2023/05/01 10:25:27;;;;;;;1.35;1.05;;;;;;;17.52;45.85;93122.69;4929581;29;20130;-88
2023/05/01 10:27:56;;;;;;;3.30;1.40;;;;;;;17.56;45.99;93106.75;4913961;29;20497;-89
2023/05/01 10:30:21;;;;;;;1.17;1.08;;;;;;;17.48;45.94;93112.78;4933692;29;20051;-88
2023/05/01 10:32:47;;;;;;;1.70;1.20;;;;;;;17.48;46.29;93114.78;4950612;28;20042;-88
2023/05/01 10:35:14;;;;;;;1.58;1.13;;;;;;;17.48;45.75;93109.31;4917924;29;20110;-88
2023/05/01 10:37:47;;;;;;;1.60;1.23;;;;;;;17.45;46.09;93119.28;4914100;29;20415;-88
2023/05/01 10:40:42;;;;;;;3.42;1.02;;;;;;;17.47;45.97;93113.28;4917939;29;20136;-88
2023/05/01 10:43:29;;;;;;;1.38;0.90;;;;;;;17.48;46.40;93107.31;4904082;29;20383;-88
2023/05/01 10:46:06;;;;;;;1.50;1.10;;;;;;;17.48;45.97;93109.31;4914737;29;20458;-88
2023/05/01 10:48:38;;;;;;;4.15;1.20;;;;;;;17.46;46.25;93112.56;4949804;29;20047;-88
2023/05/01 10:51:18;;;;;;;1.33;1.08;;;;;;;17.46;46.26;93098.91;4934287;29;20126;-88
2023/05/01 10:53:45;;;;;;;1.10;1.00;;;;;;;17.45;46.12;93097.41;4901497;29;20143;-88
2023/05/01 10:56:29;;;;;;;1.52;1.20;;;;;;;17.46;46.13;93104.34;4921564;29;20119;-89
2023/05/01 10:58:56;;;;;;;1.15;0.90;;;;;;;17.48;45.93;93101.13;4917814;29;20060;-88
2023/05/01 11:01:38;;;;;;;3.60;0.70;;;;;;;17.49;46.09;93102.59;4898247;29;20043;-89
2023/05/01 11:04:20;;;;;;;1.02;0.82;;;;;;;17.50;45.80;93104.09;4899304;29;20063;-88
2023/05/01 11:07:02;;;;;;;1.52;1.02;;;;;;;17.49;46.17;93099.88;4928628;29;20058;-88
2023/05/01 11:09:56;;;;;;;2.70;0.88;;;;;;;17.47;46.31;93111.31;4948759;28;20047;-88
2023/05/01 11:12:40;;;;;;;1.38;1.05;;;;;;;17.48;46.06;93104.59;4917048;29;20705;-88
2023/05/01 11:15:06;;;;;;;1.23;1.10;;;;;;;17.50;46.06;93103.34;4921138;29;20050;-88
2023/05/01 11:17:41;;;;;;;1.70;1.00;;;;;;;17.50;46.05;93097.88;4933469;29;20460;-89
2023/05/01 11:20:07;;;;;;;1.10;0.95;;;;;;;17.51;45.84;93094.63;4948019;29;20432;-88
2023/05/01 11:22:33;;;;;;;2.17;1.05;;;;;;;17.46;46.44;93087.97;4933169;28;20051;-88
2023/05/01 11:24:59;;;;;;;1.17;1.00;;;;;;;17.54;46.07;93085.38;4917314;29;20054;-88
2023/05/01 11:27:25;;;;;;;1.35;1.00;;;;;;;17.51;46.29;93089.16;4929019;29;20039;-88